Time;durP1;ratioP1;P1;durP2;ratioP2;P2;SDS_P1;SDS_P2;PMS_P1;PMS_P2;Temp;Humidity;BMP_temperature;BMP_pressure;BME280_temperature;BME280_humidity;BME280_pressure;Samples;Min_cycle;Max_cycle;Signal;HPM_P1;HPM_P2
2023/11/12 00:00:41;;;;;;;0.50;0.50;;;6.80;99.90;;;;;;4402376;32;20525;-59
2023/11/12 00:03:07;;;;;;;0.40;0.40;;;6.90;99.90;;;;;;4402795;32;20221;-59
2023/11/12 00:05:32;;;;;;;0.88;0.88;;;6.80;99.90;;;;;;4405092;32;20065;-57
2023/11/12 00:07:58;;;;;;;1.10;0.70;;;6.90;99.90;;;;;;4404428;32;20054;-58
2023/11/12 00:10:23;;;;;;;0.60;0.47;;;6.90;99.90;;;;;;4399562;32;20117;-59
2023/11/12 00:12:49;;;;;;;0.45;0.45;;;6.90;99.90;;;;;;4401377;32;20067;-57
2023/11/12 00:15:14;;;;;;;0.52;0.52;;;6.90;99.90;;;;;;4398133;32;20473;-58
2023/11/12 00:17:42;;;;;;;0.40;0.40;;;6.90;99.90;;;;;;4404687;32;20065;-59
2023/11/12 00:20:12;;;;;;;1.77;0.85;;;6.90;99.90;;;;;;4404056;32;20098;-59
2023/11/12 00:22:40;;;;;;;0.50;0.50;;;6.90;99.90;;;;;;4399619;32;20764;-60
2023/11/12 00:25:10;;;;;;;0.37;0.37;;;6.90;99.90;;;;;;4403729;32;20089;-59
2023/11/12 00:27:35;;;;;;;0.60;0.60;;;6.90;99.90;;;;;;4404702;32;20065;-59
2023/11/12 00:30:01;;;;;;;0.50;0.50;;;6.90;99.90;;;;;;4402926;32;20082;-59
2023/11/12 00:32:28;;;;;;;0.60;0.60;;;6.90;99.90;;;;;;4402466;32;20394;-59
2023/11/12 00:34:53;;;;;;;0.35;0.35;;;6.90;99.90;;;;;;4400069;32;20806;-62
2023/11/12 00:37:19;;;;;;;0.65;0.65;;;7.00;99.90;;;;;;4405720;32;20078;-57
2023/11/12 00:39:45;;;;;;;1.12;1.00;;;6.90;99.90;;;;;;4402034;32;20069;-59
2023/11/12 00:42:10;;;;;;;0.37;0.37;;;7.00;99.90;;;;;;4389801;32;20087;-59
2023/11/12 00:44:37;;;;;;;0.57;0.52;;;6.90;99.90;;;;;;4405338;32;20108;-59
2023/11/12 00:47:03;;;;;;;1.45;1.15;;;6.90;99.90;;;;;;4404645;32;20066;-59
2023/11/12 00:49:28;;;;;;;2.65;0.60;;;6.90;99.90;;;;;;4405456;32;20069;-59
2023/11/12 00:51:54;;;;;;;0.77;0.77;;;6.90;99.90;;;;;;4403349;32;20112;-59
2023/11/12 00:54:19;;;;;;;4.57;1.20;;;7.00;99.90;;;;;;4403544;32;20066;-59
2023/11/12 00:56:45;;;;;;;0.40;0.40;;;7.00;99.90;;;;;;4404202;32;20081;-59
2023/11/12 00:59:10;;;;;;;0.30;0.30;;;6.90;99.90;;;;;;4404621;32;20065;-58
2023/11/12 01:01:36;;;;;;;0.30;0.30;;;6.90;99.90;;;;;;4406433;32;20147;-59
2023/11/12 01:04:01;;;;;;;0.95;0.93;;;6.90;99.90;;;;;;4403697;32;20117;-59
2023/11/12 01:06:27;;;;;;;1.25;0.70;;;6.80;99.90;;;;;;4406072;32;20074;-59
2023/11/12 01:08:52;;;;;;;0.35;0.35;;;6.70;99.90;;;;;;4404101;32;20496;-59
2023/11/12 01:11:18;;;;;;;1.00;0.55;;;6.80;99.90;;;;;;4386998;32;20058;-59
2023/11/12 01:13:43;;;;;;;0.50;0.50;;;6.90;99.90;;;;;;4404854;32;20078;-59
2023/11/12 01:16:09;;;;;;;0.65;0.50;;;6.90;99.90;;;;;;4404517;32;20074;-59
2023/11/12 01:18:35;;;;;;;0.80;0.80;;;6.90;99.90;;;;;;4401558;32;20058;-59
2023/11/12 01:21:04;;;;;;;0.25;0.25;;;6.80;99.90;;;;;;4389368;32;20070;-59
2023/11/12 01:23:30;;;;;;;0.30;0.30;;;6.80;99.90;;;;;;4400905;32;20066;-59
2023/11/12 01:25:55;;;;;;;0.37;0.37;;;6.70;99.90;;;;;;4402092;32;20086;-59
2023/11/12 01:28:21;;;;;;;0.57;0.57;;;6.80;99.90;;;;;;4405646;32;20078;-57
2023/11/12 01:30:46;;;;;;;0.52;0.52;;;6.90;99.90;;;;;;4401016;32;20538;-59
2023/11/12 01:33:12;;;;;;;0.80;0.50;;;6.90;99.90;;;;;;4401273;32;20121;-59
2023/11/12 01:35:37;;;;;;;0.40;0.40;;;6.90;99.90;;;;;;4403093;32;20066;-59
2023/11/12 01:38:03;;;;;;;0.40;0.40;;;6.90;99.90;;;;;;4404291;32;20410;-58
2023/11/12 01:40:30;;;;;;;0.40;0.40;;;6.90;99.90;;;;;;4405030;32;20075;-59
2023/11/12 01:42:56;;;;;;;0.45;0.43;;;6.80;99.90;;;;;;4402513;32;20066;-58
2023/11/12 01:45:21;;;;;;;0.50;0.50;;;6.90;99.90;;;;;;4404596;32;20420;-59
2023/11/12 01:47:47;;;;;;;1.77;0.60;;;6.80;99.90;;;;;;4404809;32;20071;-59
2023/11/12 01:50:14;;;;;;;0.75;0.75;;;6.80;99.90;;;;;;4404285;32;20616;-59
2023/11/12 01:52:41;;;;;;;0.40;0.40;;;6.70;99.90;;;;;;4404183;32;20062;-59
2023/11/12 01:55:08;;;;;;;1.40;0.68;;;6.70;99.90;;;;;;4404577;32;20849;-59
2023/11/12 01:57:35;;;;;;;1.05;0.60;;;6.70;99.90;;;;;;4402198;32;20069;-59
2023/11/12 02:00:10;;;;;;;0.50;0.50;;;6.70;99.90;;;;;;4404804;32;20062;-57
2023/11/12 02:02:37;;;;;;;0.40;0.40;;;6.80;99.90;;;;;;4401474;32;20631;-59
2023/11/12 02:05:07;;;;;;;1.45;0.95;;;6.80;99.90;;;;;;4402307;32;20537;-59
2023/11/12 02:07:34;;;;;;;;;;;6.70;99.90;;;;;;4403274;32;20061;-59
2023/11/12 02:10:09;;;;;;;0.40;0.40;;;6.70;99.90;;;;;;4403847;32;19965;-59
2023/11/12 02:12:35;;;;;;;0.30;0.30;;;6.70;99.90;;;;;;4402148;32;20058;-59
2023/11/12 02:15:01;;;;;;;0.30;0.30;;;6.70;99.90;;;;;;4404541;32;20581;-58
2023/11/12 02:17:27;;;;;;;0.40;0.40;;;6.80;99.90;;;;;;4401973;32;20089;-59
2023/11/12 02:20:01;;;;;;;0.32;0.32;;;6.80;99.90;;;;;;4401928;32;20521;-59
2023/11/12 02:22:26;;;;;;;0.40;0.40;;;6.80;99.90;;;;;;4401283;32;20124;-59
2023/11/12 02:24:51;;;;;;;0.35;0.35;;;6.80;99.90;;;;;;4402875;32;20140;-59
2023/11/12 02:27:17;;;;;;;0.40;0.40;;;6.80;99.90;;;;;;4401618;32;20074;-59
2023/11/12 02:29:48;;;;;;;0.45;0.45;;;6.90;99.90;;;;;;4401174;32;20073;-57
2023/11/12 02:32:14;;;;;;;0.30;0.30;;;6.90;99.90;;;;;;4402797;32;20428;-59
2023/11/12 02:34:41;;;;;;;0.50;0.50;;;6.90;99.90;;;;;;4401470;32;20066;-59
2023/11/12 02:37:07;;;;;;;0.30;0.30;;;6.80;99.90;;;;;;4401951;32;20572;-59
2023/11/12 02:39:33;;;;;;;0.45;0.45;;;6.70;99.90;;;;;;4402757;32;20085;-59
2023/11/12 02:41:59;;;;;;;0.50;0.50;;;6.70;99.90;;;;;;4402704;32;20137;-57
2023/11/12 02:44:24;;;;;;;0.40;0.40;;;6.70;99.90;;;;;;4402950;32;20066;-58
2023/11/12 02:46:49;;;;;;;0.40;0.40;;;6.80;99.90;;;;;;4402006;32;20078;-59
2023/11/12 02:49:35;;;;;;;7.20;0.65;;;6.80;99.90;;;;;;4399857;32;20054;-59
2023/11/12 02:52:01;;;;;;;0.40;0.40;;;6.80;99.90;;;;;;4401006;32;20079;-58
2023/11/12 02:54:26;;;;;;;1.20;0.82;;;6.80;99.90;;;;;;4400346;32;20164;-59
2023/11/12 02:56:52;;;;;;;0.52;0.50;;;6.80;99.90;;;;;;4404188;32;20066;-57
2023/11/12 02:59:19;;;;;;;0.50;0.50;;;6.80;99.90;;;;;;4404442;32;20077;-58
2023/11/12 03:01:44;;;;;;;0.80;0.80;;;6.80;99.90;;;;;;4402852;32;20479;-58
2023/11/12 03:04:10;;;;;;;0.35;0.35;;;6.80;99.90;;;;;;4403570;32;20065;-59
2023/11/12 03:06:35;;;;;;;0.30;0.30;;;6.80;99.90;;;;;;4402599;32;20624;-59
2023/11/12 03:09:01;;;;;;;3.35;0.85;;;6.70;99.90;;;;;;4400805;32;20069;-59
2023/11/12 03:11:27;;;;;;;0.57;0.52;;;6.70;99.90;;;;;;4402202;32;20062;-58
2023/11/12 03:13:55;;;;;;;0.30;0.30;;;6.80;99.90;;;;;;4403833;32;20549;-59
2023/11/12 03:16:21;;;;;;;0.65;0.60;;;6.80;99.90;;;;;;4399408;32;20098;-58
2023/11/12 03:18:48;;;;;;;0.40;0.35;;;6.80;99.90;;;;;;4400977;32;20073;-59
2023/11/12 03:21:14;;;;;;;0.40;0.40;;;6.80;99.90;;;;;;4400241;32;20543;-58
2023/11/12 03:23:39;;;;;;;0.45;0.45;;;6.90;99.90;;;;;;4400621;32;20074;-59
2023/11/12 03:26:06;;;;;;;15.13;3.22;;;6.80;99.90;;;;;;4401172;32;20089;-58
2023/11/12 03:28:31;;;;;;;0.20;0.20;;;6.80;99.90;;;;;;4400643;32;20069;-58
2023/11/12 03:30:57;;;;;;;0.40;0.40;;;6.80;99.90;;;;;;4400690;32;20486;-58
2023/11/12 03:33:22;;;;;;;0.77;0.73;;;6.80;99.90;;;;;;4399219;32;20086;-59
2023/11/12 03:35:49;;;;;;;3.92;1.65;;;6.80;99.90;;;;;;4401244;32;20537;-59
2023/11/12 03:38:15;;;;;;;0.40;0.40;;;6.90;99.90;;;;;;4402802;32;20128;-58
2023/11/12 03:40:41;;;;;;;0.20;0.20;;;6.80;99.90;;;;;;4401387;32;20382;-57
2023/11/12 03:43:07;;;;;;;0.20;0.20;;;6.80;99.90;;;;;;4403779;32;20053;-59
2023/11/12 03:45:33;;;;;;;0.70;0.65;;;6.80;99.90;;;;;;4403000;32;20080;-59
2023/11/12 03:47:58;;;;;;;0.52;0.52;;;6.80;99.90;;;;;;4402175;32;20065;-59
2023/11/12 03:50:24;;;;;;;0.30;0.30;;;6.90;99.90;;;;;;4403914;32;20069;-58
2023/11/12 03:52:50;;;;;;;0.47;0.47;;;6.90;99.90;;;;;;4402824;32;20077;-56
2023/11/12 03:55:16;;;;;;;0.75;0.50;;;6.90;99.90;;;;;;4401118;32;20074;-59
2023/11/12 03:57:41;;;;;;;0.22;0.22;;;6.90;99.90;;;;;;4385150;32;20542;-58
2023/11/12 04:02:35;;;;;;;0.40;0.40;;;6.80;99.90;;;;;;4401700;32;20063;-60
2023/11/12 04:05:01;;;;;;;0.40;0.40;;;6.70;99.90;;;;;;4400960;32;20082;-58
2023/11/12 04:07:27;;;;;;;0.40;0.40;;;6.80;99.90;;;;;;4402160;32;20111;-60
2023/11/12 04:09:52;;;;;;;0.28;0.28;;;6.80;99.90;;;;;;4403092;32;20058;-59
2023/11/12 04:12:18;;;;;;;2.45;0.65;;;6.80;99.90;;;;;;4400245;32;20124;-59
2023/11/12 04:14:43;;;;;;;0.40;0.40;;;6.80;99.90;;;;;;4398083;32;20057;-59
2023/11/12 04:17:09;;;;;;;0.30;0.30;;;6.80;99.90;;;;;;4400020;32;20074;-59
2023/11/12 04:19:34;;;;;;;0.30;0.30;;;6.80;99.90;;;;;;4403251;32;20436;-60
2023/11/12 04:22:00;;;;;;;0.50;0.50;;;6.80;99.90;;;;;;4401778;32;20066;-58
2023/11/12 04:24:26;;;;;;;0.30;0.30;;;6.80;99.90;;;;;;4400867;32;20093;-57
2023/11/12 04:26:52;;;;;;;0.50;0.50;;;6.70;99.90;;;;;;4402434;32;20057;-58
2023/11/12 04:29:18;;;;;;;0.40;0.40;;;6.70;99.90;;;;;;4403156;32;20438;-60
2023/11/12 04:31:44;;;;;;;0.82;0.60;;;6.80;99.90;;;;;;4403243;32;20082;-60
2023/11/12 04:34:10;;;;;;;1.10;1.05;;;6.90;99.90;;;;;;4401186;32;20094;-59
2023/11/12 04:36:36;;;;;;;0.30;0.30;;;6.90;99.90;;;;;;4401638;32;20545;-59
2023/11/12 04:39:01;;;;;;;0.30;0.30;;;6.80;99.90;;;;;;4401577;32;20074;-59
2023/11/12 04:41:27;;;;;;;1.55;0.32;;;6.80;99.90;;;;;;4401014;32;20054;-59
2023/11/12 04:43:53;;;;;;;0.50;0.50;;;6.80;99.90;;;;;;4402135;32;20165;-59
2023/11/12 04:46:21;;;;;;;0.40;0.40;;;6.80;99.90;;;;;;4399369;32;20054;-59
2023/11/12 04:48:46;;;;;;;0.32;0.32;;;6.80;99.90;;;;;;4401867;32;20085;-59
2023/11/12 04:51:12;;;;;;;0.40;0.40;;;6.80;99.90;;;;;;4399134;32;20435;-57
2023/11/12 04:53:40;;;;;;;4.05;0.70;;;6.70;99.90;;;;;;4400719;32;20070;-58
2023/11/12 04:56:07;;;;;;;0.32;0.32;;;6.70;99.90;;;;;;4400658;32;20546;-59
2023/11/12 04:58:33;;;;;;;0.37;0.37;;;6.70;99.90;;;;;;4401052;32;20133;-59
2023/11/12 05:00:58;;;;;;;0.32;0.32;;;6.70;99.90;;;;;;4402442;32;20066;-59
2023/11/12 05:03:24;;;;;;;0.37;0.37;;;6.80;99.90;;;;;;4401532;32;20132;-59
2023/11/12 05:05:50;;;;;;;0.30;0.30;;;6.80;99.90;;;;;;4405984;32;20069;-59
2023/11/12 05:08:15;;;;;;;0.37;0.37;;;6.70;99.90;;;;;;4405143;32;20078;-59
2023/11/12 05:10:41;;;;;;;0.37;0.37;;;6.80;99.90;;;;;;4405879;32;20057;-61
2023/11/12 05:13:06;;;;;;;0.20;0.20;;;6.80;99.90;;;;;;4401861;32;20062;-61
2023/11/12 05:15:32;;;;;;;0.35;0.35;;;6.90;99.90;;;;;;4400983;32;20066;-59
2023/11/12 05:18:03;;;;;;;1.17;1.08;;;6.80;99.90;;;;;;4405068;32;20197;-61
2023/11/12 05:20:29;;;;;;;4.53;0.80;;;6.80;99.90;;;;;;4403473;32;20066;-59
2023/11/12 05:22:54;;;;;;;0.40;0.40;;;6.80;99.90;;;;;;4404206;32;20100;-61
2023/11/12 05:25:20;;;;;;;1.85;0.65;;;6.80;99.90;;;;;;4402921;32;20073;-60
2023/11/12 05:27:45;;;;;;;0.40;0.40;;;6.80;99.90;;;;;;4405355;32;20078;-60
2023/11/12 05:30:12;;;;;;;0.20;0.20;;;6.80;99.90;;;;;;4403145;32;20074;-61
2023/11/12 05:32:38;;;;;;;0.55;0.55;;;6.80;99.90;;;;;;4404446;32;20726;-60
2023/11/12 05:35:03;;;;;;;2.17;0.73;;;6.80;99.90;;;;;;4401757;32;20065;-61
2023/11/12 05:37:29;;;;;;;0.30;0.30;;;6.80;99.90;;;;;;4401408;32;20173;-61
2023/11/12 05:39:54;;;;;;;0.47;0.47;;;6.70;99.90;;;;;;4400328;32;20483;-61
2023/11/12 05:42:20;;;;;;;1.25;0.68;;;6.70;99.90;;;;;;4404742;32;20108;-59
2023/11/12 05:44:45;;;;;;;0.35;0.35;;;6.80;99.90;;;;;;4403713;32;20530;-59
2023/11/12 05:47:11;;;;;;;0.50;0.50;;;6.90;99.90;;;;;;4402844;32;20411;-61
2023/11/12 05:49:36;;;;;;;1.02;0.65;;;6.70;99.90;;;;;;4403241;32;20125;-60
2023/11/12 05:52:02;;;;;;;0.50;0.50;;;6.70;99.90;;;;;;4404813;32;20078;-60
2023/11/12 05:54:27;;;;;;;0.40;0.40;;;6.70;99.90;;;;;;4405796;32;20069;-60
2023/11/12 05:56:55;;;;;;;0.50;0.50;;;6.70;99.90;;;;;;4404673;32;20174;-61
2023/11/12 05:59:21;;;;;;;0.32;0.32;;;6.70;99.90;;;;;;4403122;32;20083;-60
2023/11/12 06:01:46;;;;;;;0.30;0.30;;;6.80;99.90;;;;;;4403475;32;20074;-61
2023/11/12 06:04:12;;;;;;;0.50;0.50;;;6.80;99.90;;;;;;4402919;32;20113;-60
2023/11/12 06:06:39;;;;;;;0.40;0.40;;;6.70;99.90;;;;;;4404827;32;20498;-60
2023/11/12 06:09:04;;;;;;;0.30;0.30;;;6.60;99.90;;;;;;4401366;32;20078;-60
2023/11/12 06:11:30;;;;;;;0.40;0.40;;;6.70;99.90;;;;;;4400996;32;21553;-61
2023/11/12 06:13:56;;;;;;;0.30;0.30;;;6.60;99.90;;;;;;4403399;32;20545;-61
2023/11/12 06:16:21;;;;;;;0.40;0.40;;;6.70;99.90;;;;;;4403505;32;20062;-59
2023/11/12 06:18:48;;;;;;;1.05;0.77;;;6.70;99.90;;;;;;4400521;32;20053;-61
2023/11/12 06:21:14;;;;;;;0.62;0.60;;;6.70;99.90;;;;;;4404358;32;20692;-61
2023/11/12 06:23:43;;;;;;;0.30;0.30;;;6.70;99.90;;;;;;4401053;32;20082;-61
2023/11/12 06:26:10;;;;;;;0.52;0.43;;;6.70;99.90;;;;;;4405057;32;20125;-59
2023/11/12 06:28:36;;;;;;;0.35;0.35;;;6.70;99.90;;;;;;4402621;32;20077;-59
2023/11/12 06:31:02;;;;;;;0.73;0.73;;;6.70;99.90;;;;;;4403730;32;20414;-61
2023/11/12 06:33:28;;;;;;;0.52;0.52;;;6.70;99.90;;;;;;4399560;32;20078;-61
2023/11/12 06:35:53;;;;;;;0.20;0.20;;;6.70;99.90;;;;;;4400405;32;20116;-61
2023/11/12 06:38:19;;;;;;;0.30;0.30;;;6.70;99.90;;;;;;4401327;32;20078;-61
2023/11/12 06:40:45;;;;;;;0.40;0.40;;;6.80;99.90;;;;;;4404109;32;20058;-61
2023/11/12 06:43:10;;;;;;;0.30;0.30;;;6.80;99.90;;;;;;4400309;32;20069;-60
2023/11/12 06:45:35;;;;;;;0.82;0.60;;;6.80;99.90;;;;;;4401347;32;20078;-61
2023/11/12 06:48:01;;;;;;;1.33;1.23;;;6.80;99.90;;;;;;4402583;32;20062;-60
2023/11/12 06:50:26;;;;;;;0.30;0.30;;;6.80;99.90;;;;;;4401809;32;20089;-60
2023/11/12 06:52:52;;;;;;;0.70;0.70;;;6.90;99.90;;;;;;4402875;32;20077;-61
2023/11/12 06:55:17;;;;;;;1.02;0.65;;;6.90;99.90;;;;;;4402614;32;20090;-61
2023/11/12 06:57:43;;;;;;;1.12;0.57;;;6.90;99.90;;;;;;4403823;32;20652;-58
2023/11/12 07:02:37;;;;;;;0.43;0.43;;;6.90;99.90;;;;;;4401362;32;20070;-61
2023/11/12 07:05:04;;;;;;;1.05;0.95;;;6.90;99.90;;;;;;4390738;32;20046;-61
2023/11/12 07:07:31;;;;;;;0.40;0.40;;;6.90;99.90;;;;;;4403681;32;20082;-60
2023/11/12 07:09:57;;;;;;;1.10;0.55;;;6.90;99.90;;;;;;4404987;32;20050;-60
2023/11/12 07:12:22;;;;;;;0.60;0.52;;;6.90;99.90;;;;;;4403257;32;20474;-61
2023/11/12 07:14:48;;;;;;;0.50;0.50;;;7.00;99.90;;;;;;4402536;32;20058;-61
2023/11/12 07:17:13;;;;;;;0.62;0.62;;;7.00;99.90;;;;;;4400817;32;20070;-61
2023/11/12 07:19:42;;;;;;;0.30;0.30;;;7.00;99.90;;;;;;4400061;32;20066;-60
2023/11/12 07:22:07;;;;;;;0.45;0.45;;;7.10;99.90;;;;;;4401321;32;20163;-61
2023/11/12 07:24:36;;;;;;;0.30;0.30;;;7.10;99.90;;;;;;4401640;32;20488;-61
2023/11/12 07:27:02;;;;;;;0.37;0.37;;;7.00;99.90;;;;;;4402052;32;20099;-61
2023/11/12 07:29:28;;;;;;;0.57;0.50;;;7.10;99.90;;;;;;4400299;32;20070;-61
2023/11/12 07:31:54;;;;;;;0.60;0.60;;;7.10;99.90;;;;;;4404679;32;21223;-60
2023/11/12 07:34:20;;;;;;;0.50;0.50;;;7.10;99.90;;;;;;4404300;32;20086;-60
2023/11/12 07:36:47;;;;;;;0.50;0.50;;;7.20;99.90;;;;;;4388539;32;20069;-61
2023/11/12 07:39:13;;;;;;;0.37;0.37;;;7.20;99.90;;;;;;4402771;32;20057;-61
2023/11/12 07:41:39;;;;;;;0.40;0.40;;;7.20;99.90;;;;;;4401832;32;20124;-59
2023/11/12 07:44:05;;;;;;;0.50;0.50;;;7.20;99.90;;;;;;4393073;32;20423;-59
2023/11/12 07:46:31;;;;;;;0.40;0.40;;;7.20;99.90;;;;;;4402776;32;20539;-60
2023/11/12 07:48:56;;;;;;;0.65;0.65;;;7.20;99.90;;;;;;4400991;32;20062;-61
2023/11/12 07:51:22;;;;;;;0.60;0.60;;;7.20;99.90;;;;;;4399772;32;20070;-61
2023/11/12 07:53:48;;;;;;;0.35;0.35;;;7.30;99.90;;;;;;4400407;32;20082;-61
2023/11/12 07:56:14;;;;;;;1.02;0.93;;;7.40;99.90;;;;;;4403578;32;20146;-61
2023/11/12 07:58:40;;;;;;;0.40;0.40;;;7.30;99.90;;;;;;4403120;32;20066;-58
2023/11/12 08:01:05;;;;;;;0.30;0.30;;;7.30;99.90;;;;;;4406740;32;20120;-59
2023/11/12 08:03:31;;;;;;;0.68;0.52;;;7.30;99.90;;;;;;4403050;32;20120;-60
2023/11/12 08:05:57;;;;;;;0.43;0.43;;;7.30;99.90;;;;;;4404221;32;20564;-60
2023/11/12 08:08:23;;;;;;;0.62;0.52;;;7.30;99.90;;;;;;4399654;32;20116;-60
2023/11/12 08:10:48;;;;;;;0.70;0.50;;;7.30;99.90;;;;;;4400293;32;21113;-58
2023/11/12 08:13:15;;;;;;;0.80;0.80;;;7.30;99.90;;;;;;4401521;32;20161;-60
2023/11/12 08:15:41;;;;;;;0.50;0.50;;;7.30;99.90;;;;;;4402384;32;20409;-60
2023/11/12 08:18:06;;;;;;;1.27;0.55;;;7.30;99.90;;;;;;4403912;32;20070;-59
2023/11/12 08:20:34;;;;;;;0.50;0.50;;;7.30;99.90;;;;;;4402359;32;20074;-60
2023/11/12 08:23:00;;;;;;;1.20;0.85;;;7.40;99.90;;;;;;4400873;32;20058;-60
2023/11/12 08:25:25;;;;;;;0.43;0.43;;;7.50;99.90;;;;;;4399664;32;20069;-60
2023/11/12 08:27:50;;;;;;;1.40;0.52;;;7.40;99.90;;;;;;4401845;32;21004;-60
2023/11/12 08:30:16;;;;;;;0.30;0.30;;;7.40;99.90;;;;;;4402085;32;20188;-59
2023/11/12 08:32:42;;;;;;;0.40;0.40;;;7.40;99.90;;;;;;4399179;32;20446;-59
2023/11/12 08:35:07;;;;;;;0.20;0.20;;;7.40;99.90;;;;;;4401630;32;20078;-59
2023/11/12 08:37:33;;;;;;;1.83;1.33;;;7.50;99.90;;;;;;4402312;32;20459;-60
2023/11/12 08:39:58;;;;;;;3.30;0.52;;;7.50;99.90;;;;;;4402796;32;20073;-60
2023/11/12 08:42:24;;;;;;;0.55;0.55;;;7.50;99.90;;;;;;4402365;32;20066;-60
2023/11/12 08:44:49;;;;;;;0.50;0.50;;;7.60;99.90;;;;;;4405632;32;20108;-60
2023/11/12 08:47:15;;;;;;;0.57;0.40;;;7.70;99.90;;;;;;4403333;32;20058;-59
2023/11/12 08:49:40;;;;;;;0.35;0.35;;;7.60;99.90;;;;;;4403297;32;20097;-60
2023/11/12 08:52:06;;;;;;;0.52;0.50;;;7.70;99.90;;;;;;4403720;32;20576;-59
2023/11/12 08:54:32;;;;;;;0.85;0.50;;;7.60;99.90;;;;;;4402545;32;20086;-60
2023/11/12 08:56:57;;;;;;;0.70;0.57;;;7.70;99.90;;;;;;4403019;32;20074;-60
2023/11/12 08:59:23;;;;;;;0.50;0.50;;;7.70;99.90;;;;;;4403855;32;20526;-60
2023/11/12 09:01:49;;;;;;;0.40;0.40;;;7.80;99.90;;;;;;4403295;32;20073;-61
2023/11/12 09:04:15;;;;;;;0.60;0.60;;;7.80;99.90;;;;;;4403794;32;20109;-59
2023/11/12 09:06:40;;;;;;;0.50;0.50;;;7.80;99.90;;;;;;4406130;32;20082;-59
2023/11/12 09:09:06;;;;;;;0.30;0.30;;;7.80;99.90;;;;;;4389106;32;20105;-60
2023/11/12 09:11:32;;;;;;;0.55;0.55;;;7.80;99.90;;;;;;4402401;32;20070;-60
2023/11/12 09:14:00;;;;;;;0.32;0.32;;;7.90;99.90;;;;;;4404403;32;20077;-60
2023/11/12 09:16:27;;;;;;;0.55;0.50;;;7.90;99.90;;;;;;4402397;32;20066;-60
2023/11/12 09:18:52;;;;;;;0.37;0.37;;;7.90;99.90;;;;;;4403891;32;21051;-60
2023/11/12 09:21:19;;;;;;;0.57;0.57;;;8.00;99.90;;;;;;4402898;32;20112;-59
2023/11/12 09:23:45;;;;;;;0.30;0.30;;;7.90;99.90;;;;;;4403928;32;20081;-60
2023/11/12 09:26:20;;;;;;;0.35;0.35;;;7.80;99.90;;;;;;4403481;32;20071;-58
2023/11/12 09:28:46;;;;;;;0.85;0.50;;;7.80;99.90;;;;;;4400317;32;20089;-59
2023/11/12 09:31:12;;;;;;;0.32;0.32;;;7.80;99.90;;;;;;4402986;32;20121;-61
2023/11/12 09:33:38;;;;;;;0.40;0.40;;;7.80;99.90;;;;;;4403254;32;20086;-60
2023/11/12 09:36:04;;;;;;;0.32;0.32;;;7.80;99.90;;;;;;4404133;32;20116;-58
2023/11/12 09:38:30;;;;;;;0.30;0.30;;;7.90;99.90;;;;;;4403367;32;20081;-59
2023/11/12 09:40:58;;;;;;;0.43;0.43;;;8.00;99.90;;;;;;4402330;32;20087;-59
2023/11/12 09:43:25;;;;;;;0.47;0.47;;;8.00;99.90;;;;;;4404543;32;20075;-61
2023/11/12 09:45:55;;;;;;;0.22;0.22;;;7.90;99.90;;;;;;4404422;32;20625;-60
2023/11/12 09:48:39;;;;;;;1.87;0.70;;;7.90;99.90;;;;;;4402617;32;20146;-60
2023/11/12 09:51:08;;;;;;;0.60;0.60;;;7.80;99.90;;;;;;4392926;32;20091;-60
2023/11/12 09:53:37;;;;;;;0.40;0.40;;;7.80;99.90;;;;;;4400556;32;20439;-60
2023/11/12 09:56:08;;;;;;;0.20;0.20;;;7.80;99.90;;;;;;4405065;32;20103;-60
2023/11/12 09:58:35;;;;;;;1.00;0.60;;;7.80;99.90;;;;;;4402334;32;20075;-60
2023/11/12 10:01:00;;;;;;;0.37;0.37;;;7.70;99.90;;;;;;4407729;32;20129;-59
2023/11/12 10:03:26;;;;;;;0.30;0.30;;;7.70;99.90;;;;;;4402985;32;20073;-59
2023/11/12 10:05:52;;;;;;;0.20;0.20;;;7.70;99.90;;;;;;4404082;32;20074;-59
2023/11/12 10:08:18;;;;;;;0.60;0.40;;;7.80;99.90;;;;;;4405154;32;20062;-58
2023/11/12 10:10:43;;;;;;;0.43;0.43;;;7.90;99.90;;;;;;4402159;32;20073;-60
2023/11/12 10:13:11;;;;;;;1.02;0.70;;;7.90;99.90;;;;;;4401075;32;20844;-59
2023/11/12 10:15:37;;;;;;;0.95;0.55;;;7.80;99.90;;;;;;4400894;32;20074;-60
2023/11/12 10:18:02;;;;;;;0.85;0.62;;;7.80;99.90;;;;;;4401859;32;20541;-59
2023/11/12 10:20:31;;;;;;;0.30;0.30;;;7.80;99.90;;;;;;4389347;32;20073;-59
2023/11/12 10:22:57;;;;;;;0.30;0.30;;;7.80;99.90;;;;;;4388628;32;20129;-60
2023/11/12 10:25:44;;;;;;;0.52;0.32;;;7.80;99.90;;;;;;4401562;32;20050;-59
2023/11/12 10:28:11;;;;;;;0.20;0.20;;;7.80;99.90;;;;;;4393010;32;20506;-60
2023/11/12 10:30:38;;;;;;;0.30;0.30;;;7.90;99.90;;;;;;4403934;32;20069;-60
2023/11/12 10:33:23;;;;;;;1.20;0.40;;;8.00;99.90;;;;;;4403207;32;20078;-61
2023/11/12 10:35:49;;;;;;;0.30;0.30;;;8.00;99.90;;;;;;4390408;32;20078;-60
2023/11/12 10:38:16;;;;;;;0.30;0.30;;;8.00;99.90;;;;;;4401384;32;20132;-60
2023/11/12 10:40:58;;;;;;;0.40;0.40;;;8.10;99.90;;;;;;4400913;32;20513;-60
2023/11/12 10:43:23;;;;;;;0.30;0.30;;;8.10;99.90;;;;;;4403919;32;20066;-60
2023/11/12 10:45:56;;;;;;;0.30;0.30;;;8.10;99.90;;;;;;4401801;32;20132;-60
2023/11/12 10:48:29;;;;;;;0.40;0.40;;;8.00;99.90;;;;;;4400095;32;20077;-60
2023/11/12 10:50:55;;;;;;;0.30;0.30;;;8.10;99.90;;;;;;4402463;32;20086;-60
2023/11/12 10:53:23;;;;;;;0.45;0.40;;;8.20;99.90;;;;;;4401436;32;20457;-60
2023/11/12 10:55:49;;;;;;;0.30;0.30;;;8.20;99.90;;;;;;4403277;32;20587;-59
2023/11/12 10:58:16;;;;;;;0.28;0.28;;;8.20;99.90;;;;;;4401967;32;20082;-60
2023/11/12 11:00:42;;;;;;;0.75;0.40;;;8.10;99.90;;;;;;4405376;32;20089;-60
2023/11/12 11:03:08;;;;;;;0.30;0.30;;;8.10;99.90;;;;;;4403148;32;20121;-60
2023/11/12 11:05:35;;;;;;;0.50;0.50;;;8.00;99.90;;;;;;4405028;32;20070;-60
2023/11/12 11:08:00;;;;;;;0.30;0.30;;;8.10;99.90;;;;;;4401941;32;20109;-61
2023/11/12 11:10:26;;;;;;;0.30;0.30;;;8.00;99.90;;;;;;4402535;32;20178;-60
2023/11/12 11:12:51;;;;;;;0.40;0.40;;;8.00;99.90;;;;;;4402279;32;20541;-60
2023/11/12 11:15:45;;;;;;;0.50;0.50;;;8.00;99.90;;;;;;4403449;32;20435;-61
2023/11/12 11:18:31;;;;;;;0.30;0.30;;;8.10;99.90;;;;;;4397714;32;20062;-60
2023/11/12 11:21:22;;;;;;;0.30;0.30;;;8.20;99.90;;;;;;4398071;32;20085;-60
2023/11/12 11:23:53;;;;;;;0.30;0.30;;;8.20;99.90;;;;;;4401225;32;20141;-59
2023/11/12 11:26:28;;;;;;;0.70;0.65;;;8.20;99.90;;;;;;4389981;32;20513;-58
2023/11/12 11:29:05;;;;;;;0.32;0.30;;;8.20;99.90;;;;;;4403215;32;20159;-60
2023/11/12 11:31:32;;;;;;;0.40;0.40;;;8.20;99.90;;;;;;4402009;32;20077;-60
2023/11/12 11:33:58;;;;;;;0.50;0.50;;;8.30;99.90;;;;;;4401272;32;20081;-60
2023/11/12 11:36:25;;;;;;;0.40;0.40;;;8.30;99.90;;;;;;4402774;32;20054;-59
2023/11/12 11:39:13;;;;;;;0.50;0.50;;;8.40;99.90;;;;;;4399950;32;20133;-60
2023/11/12 11:41:58;;;;;;;0.40;0.40;;;8.40;99.90;;;;;;4399531;32;20542;-60
2023/11/12 11:44:41;;;;;;;0.30;0.30;;;8.40;99.90;;;;;;4403782;32;20081;-60
2023/11/12 11:47:26;;;;;;;0.32;0.32;;;8.40;99.90;;;;;;4403533;32;20483;-60
2023/11/12 11:50:13;;;;;;;0.40;0.40;;;8.40;99.90;;;;;;4399592;32;93828;-60
2023/11/12 11:52:39;;;;;;;1.10;0.80;;;8.40;99.90;;;;;;4399698;32;20074;-59
2023/11/12 11:55:15;;;;;;;0.47;0.47;;;8.40;99.90;;;;;;4401664;32;20517;-60
2023/11/12 11:57:46;;;;;;;1.27;1.17;;;8.40;99.90;;;;;;4402487;32;20145;-60
2023/11/12 12:00:15;;;;;;;0.40;0.40;;;8.30;99.90;;;;;;4390109;32;20201;-59
2023/11/12 12:02:41;;;;;;;0.40;0.40;;;8.40;99.90;;;;;;4403095;32;20082;-61
2023/11/12 12:05:07;;;;;;;0.70;0.70;;;8.40;99.90;;;;;;4403997;32;20418;-60
2023/11/12 12:07:32;;;;;;;0.40;0.40;;;8.50;99.90;;;;;;4400631;32;20077;-60
2023/11/12 12:09:59;;;;;;;0.52;0.50;;;8.60;99.90;;;;;;4401767;32;20058;-59
2023/11/12 12:12:24;;;;;;;3.50;1.02;;;8.50;99.90;;;;;;4400420;32;20121;-60
2023/11/12 12:14:52;;;;;;;0.40;0.40;;;8.50;99.90;;;;;;4406896;32;20065;-59
2023/11/12 12:17:18;;;;;;;0.40;0.40;;;8.50;99.90;;;;;;4402077;32;20089;-61
2023/11/12 12:19:50;;;;;;;0.40;0.40;;;8.50;99.90;;;;;;4404143;32;20120;-60
2023/11/12 12:22:20;;;;;;;0.30;0.30;;;8.50;99.90;;;;;;4405526;32;20066;-59
2023/11/12 12:24:46;;;;;;;0.40;0.40;;;8.50;99.90;;;;;;4403737;32;20070;-60
2023/11/12 12:27:12;;;;;;;0.43;0.43;;;8.50;99.90;;;;;;4406328;32;20131;-60
2023/11/12 12:29:38;;;;;;;0.43;0.40;;;8.50;99.90;;;;;;4404228;32;20066;-60
2023/11/12 12:32:14;;;;;;;0.32;0.32;;;8.50;99.90;;;;;;4389053;32;20460;-60
2023/11/12 12:34:44;;;;;;;0.40;0.40;;;8.50;99.90;;;;;;4399960;32;20073;-59
2023/11/12 12:37:10;;;;;;;0.40;0.40;;;8.60;99.90;;;;;;4401536;32;20066;-60
2023/11/12 12:40:01;;;;;;;0.47;0.47;;;8.60;99.90;;;;;;4391901;32;20529;-60
2023/11/12 12:42:27;;;;;;;0.60;0.60;;;8.60;99.90;;;;;;4401271;32;20774;-59
2023/11/12 12:44:54;;;;;;;0.57;0.40;;;8.60;99.90;;;;;;4404824;32;20070;-60
2023/11/12 12:47:33;;;;;;;0.20;0.20;;;8.70;99.90;;;;;;4405227;32;20394;-60
2023/11/12 12:50:10;;;;;;;0.45;0.35;;;8.70;99.90;;;;;;4404766;32;20121;-59
2023/11/12 12:52:40;;;;;;;0.43;0.43;;;8.80;99.90;;;;;;4401750;32;20085;-60
2023/11/12 12:55:06;;;;;;;0.40;0.40;;;8.80;99.90;;;;;;4403141;32;20533;-60
2023/11/12 12:57:32;;;;;;;0.50;0.50;;;8.90;99.90;;;;;;4405046;32;20062;-60
2023/11/12 13:00:00;;;;;;;0.65;0.57;;;8.90;99.90;;;;;;4406033;32;20545;-60
2023/11/12 13:02:25;;;;;;;0.55;0.50;;;8.90;99.90;;;;;;4404110;32;20094;-60